DATI METEO

IERI
Time Temp. P.to rug.. Umid. Press.
00:08 12 7.5 74 1019.2
00:19 11.9 7.6 75 1018.9
00:28 11.7 7.4 75 1018.8
00:38 11.6 7.3 75 1018.7
00:49 11.4 7.1 75 1018.6
00:59 11.3 7 75 1018.7
01:09 11.1 6.8 75 1018.7
01:18 11 6.7 75 1018.8
01:29 10.9 6.8 76 1018.8
01:39 10.8 6.7 76 1018.6
01:49 10.6 6.6 76 1018.5
01:59 10.5 6.5 76 1018.4
02:09 10.4 6.4 76 1018.5
02:19 10.3 6.3 76 1018.5
02:29 10.1 6.1 76 1018.6
02:40 10 6.2 77 1018.5
02:50 9.9 6.1 77 1018.3
02:59 9.8 6 77 1018.4
03:10 9.7 5.9 77 1018.4
03:20 9.5 5.7 77 1018.2
03:30 9.4 5.6 77 1018.2
03:39 9.3 5.5 77 1018.1
03:50 9.3 5.7 78 1018
04:00 9.2 5.6 78 1017.8
04:10 9.1 5.5 78 1018
04:20 9 5.4 78 1018
04:30 9 5.4 78 1018
04:40 8.9 5.3 78 1018
04:50 8.9 5.3 78 1018
05:01 8.8 5.2 78 1017.8
05:11 8.8 5.2 78 1017.7
05:20 8.7 5.1 78 1017.6
05:31 8.7 5.1 78 1017.7
05:41 8.6 5 78 1017.7
05:51 8.3 4.5 77 1017.8
06:03 8.2 4.6 78 1018
06:13 8.2 4.8 79 1018
06:24 8.2 4.8 79 1018
06:34 8.2 4.8 79 1017.7
06:43 8.2 5 80 1017.8
06:53 8.2 5 80 1017.8
07:04 8.3 5.1 80 1018
07:14 8.3 5.1 80 1018.1
07:23 8.2 5 80 1018.1
07:34 8.3 5.1 80 1018.2
07:44 8.4 5.3 81 1018.1
07:54 8.6 5.5 81 1018.1
08:04 8.7 5.6 81 1018.2
08:14 8.8 5.7 81 1018.1
08:24 8.8 5.7 81 1018.2
08:34 9 5.9 81 1018.4
08:44 9.1 6 81 1018.3
08:55 9.2 6.1 81 1018.5
09:09 9.3 6.4 82 1018.6
09:20 9.4 6.5 82 1018.5
09:30 9.5 6.6 82 1018.6
09:40 9.5 6.6 82 1018.7
09:49 9.6 6.7 82 1018.7
10:00 9.6 6.7 82 1018.8
10:10 9.8 6.9 82 1018.9
10:30 10 7.1 82 1019.1
10:40 10.2 7.3 82 1018.9
11:00 10.4 7.5 82 1018.8
11:10 10.7 7.8 82 1018.8
11:20 10.9 8 82 1018.8
11:30 11.2 8.2 82 1018.7
11:40 11.4 8.3 81 1018.7
11:51 11.5 8.4 81 1018.8
12:00 11.9 8.7 81 1018.8
12:10 12.6 9.4 81 1018.7
12:21 13.1 9.5 79 1018.6
12:31 13.8 10 78 1018.6
12:41 14.3 10.3 77 1018.7
12:51 14.5 9.9 74 1018.6
13:01 14.8 10 73 1018.6
13:11 14.9 9.9 72 1018.6
13:21 15.4 10.6 73 1018.5
13:31 16.3 11 71 1018.5
13:41 16.3 10.6 69 1018.4
13:51 16.7 11 69 1018.3
14:01 17.5 11.5 68 1018.3
14:12 17.6 10.7 64 1018.1
14:21 18 11.6 66 1017.8
14:31 18.5 11.6 64 1017.7
14:42 19 11.8 63 1017.8
14:52 19.3 11.6 61 1017.7
15:01 19.6 11.4 59 1017.7
15:11 19.7 11.2 58 1017.8
15:22 19.9 11.7 59 1017.8
15:32 19.9 11.7 59 1017.8
15:42 20 12 60 1017.8
15:52 20.2 11.9 59 1017.7
16:02 20.5 12.2 59 1017.6
16:12 20.6 11.8 57 1017.7
16:22 20.3 11.8 58 1017.7
16:33 20 11.8 59 1017.7
16:42 19.5 11.3 59 1017.7
16:52 19 11.3 61 1017.7
17:03 18.6 10.9 61 1017.7
17:13 18.3 10.9 62 1017.6
17:22 18.1 10.7 62 1017.6
17:32 17.8 10.7 63 1017.4
17:43 17.6 10.7 64 1017.5
17:53 17.4 10.8 65 1017.5
18:03 17.2 10.6 65 1017.4
18:13 17.1 10.7 66 1017.4
18:23 16.9 10.5 66 1017.4
18:33 16.8 10.6 67 1017.3
18:43 16.6 10.5 67 1017.4
18:54 16.5 10.6 68 1017.1
19:03 16.3 10.4 68 1017.3
19:13 16.1 10.4 69 1017.3
19:24 15.8 10.3 70 1017.6
19:34 15.3 10.1 71 1017.8
19:44 15 10 72 1017.8
19:53 14.8 9.8 72 1018.1
20:04 14.6 9.8 73 1018
20:14 14.4 9.6 73 1018.2
20:24 14.2 9.4 73 1018
20:34 14.1 9.3 73 1018
20:44 13.9 9.3 74 1017.6
20:54 13.7 9.2 74 1017.8
21:04 13.5 9 74 1018
21:15 13.3 8.8 74 1018.1
21:24 13.2 8.9 75 1018.2
21:34 13.1 8.8 75 1018.3
21:45 12.9 8.6 75 1018.3
21:55 12.8 8.5 75 1018.5
22:05 12.5 8.2 75 1018.5
22:14 12.4 8.3 76 1018.5
22:25 12.2 8.1 76 1018.7
22:35 12.1 8 76 1018.6
22:45 12 7.9 76 1018.6
22:55 11.9 7.8 76 1018.6
23:05 11.8 7.7 76 1018.7
23:15 11.6 7.5 76 1018.9
23:25 11.4 7.3 76 1019
23:36 11.2 7.3 77 1018.8
23:45 11.2 7.3 77 1019
23:55 11.1 7.2 77 1019

STATISTICHE GIORNALIERE

2022-10-04
TEMPERATURA
MEDIA
12.8
MASSIMA
20.6
16:12
MINIMA
8.2
06:03
PRESSIONE
MEDIA
1018.2
MASSIMA
1019.2
00:08
MINIMA
1017.1
18:54
PUNTO DI RUGIADA
MEDIA
8.1
MASSIMA
12.2
16:02
MINIMA
4.5
05:51
UMIDITÀ
MEDIA
74
MASSIMA
82
09:09
MINIMA
57
16:12
TEMPERATURA (°C)
MINIMA
8.2
MASSIMA
20.6
MEDIA
12.8
PRESSIONE (hpa)
MINIMA
1017.1
MASSIMA
1019.2
MEDIA
1018.2
DEVICE